sensor_id;sensor_type;location;lat;lon;timestamp;P1;durP1;ratioP1;P2;durP2;ratioP2
1949;SDS011;975;48.760;9.152;2022-08-19T00:00:39;19.42;;;10.55;;
1949;SDS011;975;48.760;9.152;2022-08-19T00:03:06;15.25;;;10.43;;
1949;SDS011;975;48.760;9.152;2022-08-19T00:05:34;16.05;;;9.85;;
1949;SDS011;975;48.760;9.152;2022-08-19T00:08:04;14.35;;;9.80;;
1949;SDS011;975;48.760;9.152;2022-08-19T00:10:31;17.90;;;10.77;;
1949;SDS011;975;48.760;9.152;2022-08-19T00:12:59;15.43;;;10.10;;
1949;SDS011;975;48.760;9.152;2022-08-19T00:15:27;15.75;;;10.43;;
1949;SDS011;975;48.760;9.152;2022-08-19T00:17:57;16.35;;;10.63;;
1949;SDS011;975;48.760;9.152;2022-08-19T00:20:25;16.83;;;10.38;;
1949;SDS011;975;48.760;9.152;2022-08-19T00:22:52;14.63;;;9.75;;
1949;SDS011;975;48.760;9.152;2022-08-19T00:25:22;14.52;;;9.95;;
1949;SDS011;975;48.760;9.152;2022-08-19T00:27:50;16.27;;;10.52;;
1949;SDS011;975;48.760;9.152;2022-08-19T00:30:17;18.35;;;10.10;;
1949;SDS011;975;48.760;9.152;2022-08-19T00:32:45;18.90;;;10.70;;
1949;SDS011;975;48.760;9.152;2022-08-19T00:35:13;15.18;;;10.18;;
1949;SDS011;975;48.760;9.152;2022-08-19T00:37:40;16.48;;;11.02;;
1949;SDS011;975;48.760;9.152;2022-08-19T00:40:11;16.10;;;9.90;;
1949;SDS011;975;48.760;9.152;2022-08-19T00:42:40;16.40;;;10.57;;
1949;SDS011;975;48.760;9.152;2022-08-19T00:47:38;19.05;;;10.65;;
1949;SDS011;975;48.760;9.152;2022-08-19T00:50:06;17.02;;;10.35;;
1949;SDS011;975;48.760;9.152;2022-08-19T00:52:37;16.73;;;10.52;;
1949;SDS011;975;48.760;9.152;2022-08-19T00:55:12;15.73;;;10.63;;
1949;SDS011;975;48.760;9.152;2022-08-19T00:57:44;17.33;;;10.48;;
1949;SDS011;975;48.760;9.152;2022-08-19T01:00:16;15.80;;;9.88;;
1949;SDS011;975;48.760;9.152;2022-08-19T01:02:45;16.10;;;10.95;;
1949;SDS011;975;48.760;9.152;2022-08-19T01:05:14;17.70;;;10.35;;
1949;SDS011;975;48.760;9.152;2022-08-19T01:07:46;14.75;;;10.15;;
1949;SDS011;975;48.760;9.152;2022-08-19T01:10:16;16.75;;;10.57;;
1949;SDS011;975;48.760;9.152;2022-08-19T01:12:47;15.52;;;10.30;;
1949;SDS011;975;48.760;9.152;2022-08-19T01:15:17;15.57;;;10.25;;
1949;SDS011;975;48.760;9.152;2022-08-19T01:17:47;15.45;;;10.30;;
1949;SDS011;975;48.760;9.152;2022-08-19T01:20:17;19.17;;;10.95;;
1949;SDS011;975;48.760;9.152;2022-08-19T01:22:48;17.65;;;11.32;;
1949;SDS011;975;48.760;9.152;2022-08-19T01:25:22;17.23;;;10.30;;
1949;SDS011;975;48.760;9.152;2022-08-19T01:27:53;18.65;;;10.95;;
1949;SDS011;975;48.760;9.152;2022-08-19T01:30:22;16.33;;;11.13;;
1949;SDS011;975;48.760;9.152;2022-08-19T01:32:52;15.10;;;10.10;;
1949;SDS011;975;48.760;9.152;2022-08-19T01:35:21;19.00;;;11.43;;
1949;SDS011;975;48.760;9.152;2022-08-19T01:37:52;17.10;;;10.43;;
1949;SDS011;975;48.760;9.152;2022-08-19T01:40:23;18.38;;;10.35;;
1949;SDS011;975;48.760;9.152;2022-08-19T01:42:52;18.05;;;10.77;;
1949;SDS011;975;48.760;9.152;2022-08-19T01:45:21;16.85;;;10.82;;
1949;SDS011;975;48.760;9.152;2022-08-19T01:50:18;18.65;;;11.07;;
1949;SDS011;975;48.760;9.152;2022-08-19T01:52:45;18.40;;;10.90;;
1949;SDS011;975;48.760;9.152;2022-08-19T01:55:15;20.70;;;12.40;;
1949;SDS011;975;48.760;9.152;2022-08-19T01:57:47;19.95;;;12.23;;
1949;SDS011;975;48.760;9.152;2022-08-19T02:00:19;18.45;;;10.88;;
1949;SDS011;975;48.760;9.152;2022-08-19T02:02:47;16.15;;;10.55;;
1949;SDS011;975;48.760;9.152;2022-08-19T02:05:15;19.80;;;11.43;;
1949;SDS011;975;48.760;9.152;2022-08-19T02:07:43;19.13;;;10.68;;
1949;SDS011;975;48.760;9.152;2022-08-19T02:10:12;17.83;;;10.68;;
1949;SDS011;975;48.760;9.152;2022-08-19T02:12:44;17.83;;;11.35;;
1949;SDS011;975;48.760;9.152;2022-08-19T02:15:11;19.45;;;11.88;;
1949;SDS011;975;48.760;9.152;2022-08-19T02:17:39;17.48;;;11.07;;
1949;SDS011;975;48.760;9.152;2022-08-19T02:20:12;16.10;;;10.52;;
1949;SDS011;975;48.760;9.152;2022-08-19T02:22:40;20.05;;;12.05;;
1949;SDS011;975;48.760;9.152;2022-08-19T02:25:08;17.48;;;11.75;;
1949;SDS011;975;48.760;9.152;2022-08-19T02:27:38;22.05;;;12.75;;
1949;SDS011;975;48.760;9.152;2022-08-19T02:30:06;21.45;;;11.88;;
1949;SDS011;975;48.760;9.152;2022-08-19T02:32:36;20.10;;;11.98;;
1949;SDS011;975;48.760;9.152;2022-08-19T02:35:05;19.48;;;12.27;;
1949;SDS011;975;48.760;9.152;2022-08-19T02:37:33;20.67;;;12.35;;
1949;SDS011;975;48.760;9.152;2022-08-19T02:40:18;21.63;;;12.93;;
1949;SDS011;975;48.760;9.152;2022-08-19T02:42:48;19.40;;;12.65;;
1949;SDS011;975;48.760;9.152;2022-08-19T02:45:16;18.30;;;11.88;;
1949;SDS011;975;48.760;9.152;2022-08-19T02:47:43;18.88;;;12.18;;
1949;SDS011;975;48.760;9.152;2022-08-19T02:50:11;25.98;;;14.07;;
1949;SDS011;975;48.760;9.152;2022-08-19T02:52:39;24.13;;;14.00;;
1949;SDS011;975;48.760;9.152;2022-08-19T02:55:07;24.15;;;12.82;;
1949;SDS011;975;48.760;9.152;2022-08-19T02:57:35;23.35;;;13.18;;
1949;SDS011;975;48.760;9.152;2022-08-19T03:00:05;22.05;;;12.25;;
1949;SDS011;975;48.760;9.152;2022-08-19T03:02:34;23.85;;;14.20;;
1949;SDS011;975;48.760;9.152;2022-08-19T03:05:02;23.25;;;14.20;;
1949;SDS011;975;48.760;9.152;2022-08-19T03:07:31;24.77;;;13.82;;
1949;SDS011;975;48.760;9.152;2022-08-19T03:09:58;25.98;;;14.75;;
1949;SDS011;975;48.760;9.152;2022-08-19T03:12:26;23.10;;;13.80;;
1949;SDS011;975;48.760;9.152;2022-08-19T03:14:53;25.20;;;14.25;;
1949;SDS011;975;48.760;9.152;2022-08-19T03:17:22;23.67;;;13.55;;
1949;SDS011;975;48.760;9.152;2022-08-19T03:19:50;22.23;;;13.75;;
1949;SDS011;975;48.760;9.152;2022-08-19T03:22:17;24.20;;;15.07;;
1949;SDS011;975;48.760;9.152;2022-08-19T03:24:45;27.65;;;15.75;;
1949;SDS011;975;48.760;9.152;2022-08-19T03:27:12;23.50;;;14.20;;
1949;SDS011;975;48.760;9.152;2022-08-19T03:29:40;25.60;;;14.13;;
1949;SDS011;975;48.760;9.152;2022-08-19T03:32:08;23.35;;;14.77;;
1949;SDS011;975;48.760;9.152;2022-08-19T03:34:37;22.88;;;14.70;;
1949;SDS011;975;48.760;9.152;2022-08-19T03:37:06;23.98;;;14.18;;
1949;SDS011;975;48.760;9.152;2022-08-19T03:39:35;25.13;;;14.07;;
1949;SDS011;975;48.760;9.152;2022-08-19T03:42:03;28.90;;;15.43;;
1949;SDS011;975;48.760;9.152;2022-08-19T03:44:31;25.25;;;14.98;;
1949;SDS011;975;48.760;9.152;2022-08-19T03:47:03;25.17;;;15.80;;
1949;SDS011;975;48.760;9.152;2022-08-19T03:49:31;26.05;;;13.77;;
1949;SDS011;975;48.760;9.152;2022-08-19T03:52:02;24.73;;;16.45;;
1949;SDS011;975;48.760;9.152;2022-08-19T03:54:32;26.42;;;15.32;;
1949;SDS011;975;48.760;9.152;2022-08-19T03:57:00;25.40;;;15.68;;
1949;SDS011;975;48.760;9.152;2022-08-19T03:59:30;27.55;;;15.60;;
1949;SDS011;975;48.760;9.152;2022-08-19T04:01:59;25.55;;;15.40;;
1949;SDS011;975;48.760;9.152;2022-08-19T04:04:27;24.48;;;14.50;;
1949;SDS011;975;48.760;9.152;2022-08-19T04:06:55;23.40;;;15.00;;
1949;SDS011;975;48.760;9.152;2022-08-19T04:09:24;23.08;;;15.05;;
1949;SDS011;975;48.760;9.152;2022-08-19T04:11:53;25.75;;;16.77;;
1949;SDS011;975;48.760;9.152;2022-08-19T04:14:21;28.30;;;15.77;;
1949;SDS011;975;48.760;9.152;2022-08-19T04:16:49;29.20;;;16.95;;
1949;SDS011;975;48.760;9.152;2022-08-19T04:19:17;29.10;;;17.00;;
1949;SDS011;975;48.760;9.152;2022-08-19T04:21:46;26.48;;;17.27;;
1949;SDS011;975;48.760;9.152;2022-08-19T04:24:14;26.92;;;16.08;;
1949;SDS011;975;48.760;9.152;2022-08-19T04:26:43;29.50;;;17.65;;
1949;SDS011;975;48.760;9.152;2022-08-19T04:29:11;25.60;;;16.13;;
1949;SDS011;975;48.760;9.152;2022-08-19T04:31:40;29.63;;;17.10;;
1949;SDS011;975;48.760;9.152;2022-08-19T04:34:09;30.92;;;16.83;;
1949;SDS011;975;48.760;9.152;2022-08-19T04:36:38;27.05;;;15.90;;
1949;SDS011;975;48.760;9.152;2022-08-19T04:39:08;27.15;;;16.42;;
1949;SDS011;975;48.760;9.152;2022-08-19T04:41:36;27.80;;;15.50;;
1949;SDS011;975;48.760;9.152;2022-08-19T04:44:23;28.50;;;17.13;;
1949;SDS011;975;48.760;9.152;2022-08-19T04:46:51;29.45;;;17.23;;
1949;SDS011;975;48.760;9.152;2022-08-19T04:49:20;31.25;;;17.48;;
1949;SDS011;975;48.760;9.152;2022-08-19T04:51:51;26.98;;;16.40;;
1949;SDS011;975;48.760;9.152;2022-08-19T04:54:20;29.70;;;17.80;;
1949;SDS011;975;48.760;9.152;2022-08-19T04:56:50;27.15;;;16.75;;
1949;SDS011;975;48.760;9.152;2022-08-19T04:59:19;29.13;;;16.27;;
1949;SDS011;975;48.760;9.152;2022-08-19T05:01:48;27.55;;;16.75;;
1949;SDS011;975;48.760;9.152;2022-08-19T05:04:17;27.15;;;16.55;;
1949;SDS011;975;48.760;9.152;2022-08-19T05:06:45;28.35;;;16.92;;
1949;SDS011;975;48.760;9.152;2022-08-19T05:09:13;29.38;;;16.65;;
1949;SDS011;975;48.760;9.152;2022-08-19T05:11:42;30.45;;;17.25;;
1949;SDS011;975;48.760;9.152;2022-08-19T05:14:10;27.20;;;16.70;;
1949;SDS011;975;48.760;9.152;2022-08-19T05:16:39;31.92;;;17.55;;
1949;SDS011;975;48.760;9.152;2022-08-19T05:19:08;27.98;;;16.90;;
1949;SDS011;975;48.760;9.152;2022-08-19T05:21:53;28.08;;;16.20;;
1949;SDS011;975;48.760;9.152;2022-08-19T05:24:38;28.05;;;16.55;;
1949;SDS011;975;48.760;9.152;2022-08-19T05:27:06;25.95;;;17.80;;
1949;SDS011;975;48.760;9.152;2022-08-19T05:29:34;29.60;;;17.25;;
1949;SDS011;975;48.760;9.152;2022-08-19T05:32:02;28.45;;;16.60;;
1949;SDS011;975;48.760;9.152;2022-08-19T05:34:32;28.98;;;17.48;;
1949;SDS011;975;48.760;9.152;2022-08-19T05:37:01;27.05;;;16.92;;
1949;SDS011;975;48.760;9.152;2022-08-19T05:39:32;31.42;;;16.83;;
1949;SDS011;975;48.760;9.152;2022-08-19T05:42:02;28.27;;;17.20;;
1949;SDS011;975;48.760;9.152;2022-08-19T05:44:31;26.52;;;16.27;;
1949;SDS011;975;48.760;9.152;2022-08-19T05:46:59;29.85;;;17.23;;
1949;SDS011;975;48.760;9.152;2022-08-19T05:49:27;26.38;;;15.45;;
1949;SDS011;975;48.760;9.152;2022-08-19T05:51:56;25.90;;;15.48;;
1949;SDS011;975;48.760;9.152;2022-08-19T05:54:25;25.00;;;15.73;;
1949;SDS011;975;48.760;9.152;2022-08-19T05:56:53;28.40;;;16.67;;
1949;SDS011;975;48.760;9.152;2022-08-19T05:59:21;24.85;;;15.57;;
1949;SDS011;975;48.760;9.152;2022-08-19T06:01:49;25.10;;;15.70;;
1949;SDS011;975;48.760;9.152;2022-08-19T06:04:18;29.75;;;16.08;;
1949;SDS011;975;48.760;9.152;2022-08-19T06:06:46;25.80;;;15.93;;
1949;SDS011;975;48.760;9.152;2022-08-19T06:09:15;30.13;;;16.40;;
1949;SDS011;975;48.760;9.152;2022-08-19T06:11:43;25.77;;;15.75;;
1949;SDS011;975;48.760;9.152;2022-08-19T06:14:13;26.95;;;16.38;;
1949;SDS011;975;48.760;9.152;2022-08-19T06:16:41;27.75;;;15.70;;
1949;SDS011;975;48.760;9.152;2022-08-19T06:19:10;26.23;;;15.02;;
1949;SDS011;975;48.760;9.152;2022-08-19T06:21:38;26.58;;;14.88;;
1949;SDS011;975;48.760;9.152;2022-08-19T06:24:07;27.70;;;15.60;;
1949;SDS011;975;48.760;9.152;2022-08-19T06:26:38;25.60;;;15.38;;
1949;SDS011;975;48.760;9.152;2022-08-19T06:29:06;23.83;;;14.90;;
1949;SDS011;975;48.760;9.152;2022-08-19T06:31:34;27.13;;;15.60;;
1949;SDS011;975;48.760;9.152;2022-08-19T06:34:02;24.65;;;15.38;;
1949;SDS011;975;48.760;9.152;2022-08-19T06:36:31;26.63;;;16.40;;
1949;SDS011;975;48.760;9.152;2022-08-19T06:38:59;29.17;;;17.45;;
1949;SDS011;975;48.760;9.152;2022-08-19T06:41:28;25.33;;;15.43;;
1949;SDS011;975;48.760;9.152;2022-08-19T06:43:57;25.20;;;15.13;;
1949;SDS011;975;48.760;9.152;2022-08-19T06:46:25;26.48;;;15.40;;
1949;SDS011;975;48.760;9.152;2022-08-19T06:48:53;26.60;;;16.55;;
1949;SDS011;975;48.760;9.152;2022-08-19T06:51:21;28.42;;;16.73;;
1949;SDS011;975;48.760;9.152;2022-08-19T06:53:50;25.55;;;16.13;;
1949;SDS011;975;48.760;9.152;2022-08-19T06:56:19;27.52;;;17.15;;
1949;SDS011;975;48.760;9.152;2022-08-19T06:58:48;26.60;;;16.30;;
1949;SDS011;975;48.760;9.152;2022-08-19T07:01:18;27.55;;;16.75;;
1949;SDS011;975;48.760;9.152;2022-08-19T07:03:46;28.38;;;17.58;;
1949;SDS011;975;48.760;9.152;2022-08-19T07:06:15;30.02;;;17.13;;
1949;SDS011;975;48.760;9.152;2022-08-19T07:08:43;29.40;;;17.95;;
1949;SDS011;975;48.760;9.152;2022-08-19T07:11:12;28.58;;;16.92;;
1949;SDS011;975;48.760;9.152;2022-08-19T07:13:40;25.38;;;15.90;;
1949;SDS011;975;48.760;9.152;2022-08-19T07:16:09;27.95;;;16.75;;
1949;SDS011;975;48.760;9.152;2022-08-19T07:18:39;31.42;;;19.42;;
1949;SDS011;975;48.760;9.152;2022-08-19T07:21:07;31.15;;;17.08;;
1949;SDS011;975;48.760;9.152;2022-08-19T07:23:35;28.25;;;15.73;;
1949;SDS011;975;48.760;9.152;2022-08-19T07:26:04;26.50;;;16.17;;
1949;SDS011;975;48.760;9.152;2022-08-19T07:28:32;31.13;;;17.17;;
1949;SDS011;975;48.760;9.152;2022-08-19T07:31:00;28.70;;;16.45;;
1949;SDS011;975;48.760;9.152;2022-08-19T07:33:29;28.45;;;16.42;;
1949;SDS011;975;48.760;9.152;2022-08-19T07:35:59;26.58;;;16.38;;
1949;SDS011;975;48.760;9.152;2022-08-19T07:38:27;24.60;;;16.05;;
1949;SDS011;975;48.760;9.152;2022-08-19T07:40:54;25.70;;;16.08;;
1949;SDS011;975;48.760;9.152;2022-08-19T07:43:22;27.25;;;15.43;;
1949;SDS011;975;48.760;9.152;2022-08-19T07:45:50;25.77;;;16.17;;
1949;SDS011;975;48.760;9.152;2022-08-19T07:48:18;27.38;;;15.32;;
1949;SDS011;975;48.760;9.152;2022-08-19T07:50:48;26.10;;;16.08;;
1949;SDS011;975;48.760;9.152;2022-08-19T07:53:17;26.55;;;16.20;;
1949;SDS011;975;48.760;9.152;2022-08-19T07:55:45;25.08;;;15.85;;
1949;SDS011;975;48.760;9.152;2022-08-19T07:58:13;26.95;;;15.32;;
1949;SDS011;975;48.760;9.152;2022-08-19T08:00:41;24.50;;;15.90;;
1949;SDS011;975;48.760;9.152;2022-08-19T08:03:09;26.73;;;16.13;;
1949;SDS011;975;48.760;9.152;2022-08-19T08:05:37;22.55;;;14.43;;
1949;SDS011;975;48.760;9.152;2022-08-19T08:08:24;24.25;;;14.18;;
1949;SDS011;975;48.760;9.152;2022-08-19T08:11:09;25.08;;;14.82;;
1949;SDS011;975;48.760;9.152;2022-08-19T08:13:37;23.17;;;13.48;;
1949;SDS011;975;48.760;9.152;2022-08-19T08:16:06;24.20;;;14.70;;
1949;SDS011;975;48.760;9.152;2022-08-19T08:18:35;21.40;;;14.43;;
1949;SDS011;975;48.760;9.152;2022-08-19T08:21:07;24.35;;;14.02;;
1949;SDS011;975;48.760;9.152;2022-08-19T08:23:36;38.45;;;19.83;;
1949;SDS011;975;48.760;9.152;2022-08-19T08:26:05;25.10;;;15.55;;
1949;SDS011;975;48.760;9.152;2022-08-19T08:28:33;23.40;;;15.15;;
1949;SDS011;975;48.760;9.152;2022-08-19T08:31:00;23.08;;;15.07;;
1949;SDS011;975;48.760;9.152;2022-08-19T08:33:28;21.73;;;14.82;;
1949;SDS011;975;48.760;9.152;2022-08-19T08:35:56;23.38;;;14.18;;
1949;SDS011;975;48.760;9.152;2022-08-19T08:38:24;24.92;;;14.77;;
1949;SDS011;975;48.760;9.152;2022-08-19T08:40:56;23.13;;;14.93;;
1949;SDS011;975;48.760;9.152;2022-08-19T08:43:32;24.60;;;15.48;;
1949;SDS011;975;48.760;9.152;2022-08-19T08:46:01;25.75;;;15.23;;
1949;SDS011;975;48.760;9.152;2022-08-19T08:48:32;23.58;;;14.15;;
1949;SDS011;975;48.760;9.152;2022-08-19T08:51:03;24.83;;;14.57;;
1949;SDS011;975;48.760;9.152;2022-08-19T08:53:32;23.98;;;14.70;;
1949;SDS011;975;48.760;9.152;2022-08-19T08:56:02;20.40;;;14.10;;
1949;SDS011;975;48.760;9.152;2022-08-19T08:58:31;27.02;;;14.80;;
1949;SDS011;975;48.760;9.152;2022-08-19T09:01:08;27.05;;;15.13;;
1949;SDS011;975;48.760;9.152;2022-08-19T09:03:36;24.40;;;14.75;;
1949;SDS011;975;48.760;9.152;2022-08-19T09:06:06;24.50;;;14.60;;
1949;SDS011;975;48.760;9.152;2022-08-19T09:08:39;21.52;;;13.77;;
1949;SDS011;975;48.760;9.152;2022-08-19T09:11:12;26.25;;;15.90;;
1949;SDS011;975;48.760;9.152;2022-08-19T09:13:45;27.08;;;16.10;;
1949;SDS011;975;48.760;9.152;2022-08-19T09:16:16;25.05;;;14.43;;
1949;SDS011;975;48.760;9.152;2022-08-19T09:18:46;23.23;;;14.77;;
1949;SDS011;975;48.760;9.152;2022-08-19T09:21:15;24.83;;;16.42;;
1949;SDS011;975;48.760;9.152;2022-08-19T09:23:42;25.95;;;16.27;;
1949;SDS011;975;48.760;9.152;2022-08-19T09:26:12;21.67;;;13.77;;
1949;SDS011;975;48.760;9.152;2022-08-19T09:28:41;25.73;;;15.63;;
1949;SDS011;975;48.760;9.152;2022-08-19T09:31:09;24.77;;;14.63;;
1949;SDS011;975;48.760;9.152;2022-08-19T09:33:37;28.17;;;14.75;;
1949;SDS011;975;48.760;9.152;2022-08-19T09:36:05;26.60;;;16.67;;
1949;SDS011;975;48.760;9.152;2022-08-19T09:38:34;21.20;;;14.38;;
1949;SDS011;975;48.760;9.152;2022-08-19T09:41:02;21.92;;;14.35;;
1949;SDS011;975;48.760;9.152;2022-08-19T09:43:32;24.15;;;13.75;;
1949;SDS011;975;48.760;9.152;2022-08-19T09:46:02;21.83;;;13.52;;
1949;SDS011;975;48.760;9.152;2022-08-19T09:48:30;21.23;;;13.65;;
1949;SDS011;975;48.760;9.152;2022-08-19T09:51:02;18.33;;;12.43;;
1949;SDS011;975;48.760;9.152;2022-08-19T09:53:30;19.50;;;12.70;;
1949;SDS011;975;48.760;9.152;2022-08-19T09:55:58;19.85;;;14.13;;
1949;SDS011;975;48.760;9.152;2022-08-19T09:58:25;21.10;;;13.63;;
1949;SDS011;975;48.760;9.152;2022-08-19T10:00:56;21.67;;;13.15;;
1949;SDS011;975;48.760;9.152;2022-08-19T10:03:24;19.48;;;11.57;;
1949;SDS011;975;48.760;9.152;2022-08-19T10:05:52;22.15;;;12.50;;
1949;SDS011;975;48.760;9.152;2022-08-19T10:08:21;17.38;;;11.65;;
1949;SDS011;975;48.760;9.152;2022-08-19T10:10:51;16.83;;;11.15;;
1949;SDS011;975;48.760;9.152;2022-08-19T10:13:19;20.55;;;11.82;;
1949;SDS011;975;48.760;9.152;2022-08-19T10:15:49;14.35;;;10.43;;
1949;SDS011;975;48.760;9.152;2022-08-19T10:18:19;15.02;;;10.60;;
1949;SDS011;975;48.760;9.152;2022-08-19T10:20:47;19.98;;;10.95;;
1949;SDS011;975;48.760;9.152;2022-08-19T10:23:16;18.73;;;11.35;;
1949;SDS011;975;48.760;9.152;2022-08-19T10:25:44;17.98;;;10.88;;
1949;SDS011;975;48.760;9.152;2022-08-19T10:28:11;17.48;;;11.30;;
1949;SDS011;975;48.760;9.152;2022-08-19T10:30:39;16.58;;;11.27;;
1949;SDS011;975;48.760;9.152;2022-08-19T10:33:07;16.10;;;9.52;;
1949;SDS011;975;48.760;9.152;2022-08-19T10:35:36;16.90;;;10.73;;
1949;SDS011;975;48.760;9.152;2022-08-19T10:38:04;16.48;;;10.95;;
1949;SDS011;975;48.760;9.152;2022-08-19T10:40:32;17.27;;;10.38;;
1949;SDS011;975;48.760;9.152;2022-08-19T10:43:00;15.93;;;10.75;;
1949;SDS011;975;48.760;9.152;2022-08-19T10:45:28;15.27;;;9.52;;
1949;SDS011;975;48.760;9.152;2022-08-19T10:47:55;13.25;;;9.40;;
1949;SDS011;975;48.760;9.152;2022-08-19T10:50:23;15.02;;;10.60;;
1949;SDS011;975;48.760;9.152;2022-08-19T10:53:11;15.68;;;10.32;;
1949;SDS011;975;48.760;9.152;2022-08-19T10:55:39;14.02;;;9.20;;
1949;SDS011;975;48.760;9.152;2022-08-19T10:58:24;14.00;;;8.98;;
1949;SDS011;975;48.760;9.152;2022-08-19T11:00:52;14.32;;;8.52;;
1949;SDS011;975;48.760;9.152;2022-08-19T11:03:20;13.25;;;8.85;;
1949;SDS011;975;48.760;9.152;2022-08-19T11:05:56;13.90;;;8.23;;
1949;SDS011;975;48.760;9.152;2022-08-19T11:08:26;15.02;;;9.00;;
1949;SDS011;975;48.760;9.152;2022-08-19T11:10:57;11.70;;;8.18;;
1949;SDS011;975;48.760;9.152;2022-08-19T11:13:26;14.02;;;8.35;;
1949;SDS011;975;48.760;9.152;2022-08-19T11:15:58;12.07;;;7.50;;
1949;SDS011;975;48.760;9.152;2022-08-19T11:18:27;13.15;;;8.45;;
1949;SDS011;975;48.760;9.152;2022-08-19T11:20:55;12.77;;;7.85;;
1949;SDS011;975;48.760;9.152;2022-08-19T11:23:33;16.58;;;8.02;;
1949;SDS011;975;48.760;9.152;2022-08-19T11:26:01;12.43;;;7.93;;
1949;SDS011;975;48.760;9.152;2022-08-19T11:28:29;11.80;;;7.82;;
1949;SDS011;975;48.760;9.152;2022-08-19T11:30:57;10.40;;;8.25;;
1949;SDS011;975;48.760;9.152;2022-08-19T11:33:25;12.93;;;8.13;;
1949;SDS011;975;48.760;9.152;2022-08-19T11:35:52;14.55;;;7.75;;
1949;SDS011;975;48.760;9.152;2022-08-19T11:38:20;12.20;;;8.27;;
1949;SDS011;975;48.760;9.152;2022-08-19T11:40:55;10.90;;;8.10;;
1949;SDS011;975;48.760;9.152;2022-08-19T11:43:22;11.95;;;7.90;;
1949;SDS011;975;48.760;9.152;2022-08-19T11:45:52;9.80;;;7.15;;
1949;SDS011;975;48.760;9.152;2022-08-19T11:48:19;12.75;;;8.10;;
1949;SDS011;975;48.760;9.152;2022-08-19T11:50:48;11.45;;;7.75;;
1949;SDS011;975;48.760;9.152;2022-08-19T11:53:15;10.98;;;7.15;;
1949;SDS011;975;48.760;9.152;2022-08-19T11:55:44;13.93;;;8.00;;
1949;SDS011;975;48.760;9.152;2022-08-19T11:58:14;10.43;;;7.35;;
1949;SDS011;975;48.760;9.152;2022-08-19T12:00:42;11.43;;;7.93;;
1949;SDS011;975;48.760;9.152;2022-08-19T12:03:10;12.65;;;7.80;;
1949;SDS011;975;48.760;9.152;2022-08-19T12:05:38;10.27;;;7.82;;
1949;SDS011;975;48.760;9.152;2022-08-19T12:08:07;10.40;;;7.25;;
1949;SDS011;975;48.760;9.152;2022-08-19T12:10:35;12.68;;;7.75;;
1949;SDS011;975;48.760;9.152;2022-08-19T12:13:02;10.60;;;6.88;;
1949;SDS011;975;48.760;9.152;2022-08-19T12:15:34;12.13;;;7.40;;
1949;SDS011;975;48.760;9.152;2022-08-19T12:18:02;11.30;;;7.28;;
1949;SDS011;975;48.760;9.152;2022-08-19T12:20:31;11.27;;;7.45;;
1949;SDS011;975;48.760;9.152;2022-08-19T12:23:01;11.23;;;7.40;;
1949;SDS011;975;48.760;9.152;2022-08-19T12:25:28;9.75;;;7.28;;
1949;SDS011;975;48.760;9.152;2022-08-19T12:27:56;11.43;;;7.80;;
1949;SDS011;975;48.760;9.152;2022-08-19T12:30:23;9.57;;;6.82;;
1949;SDS011;975;48.760;9.152;2022-08-19T12:32:53;14.13;;;7.95;;
1949;SDS011;975;48.760;9.152;2022-08-19T12:35:20;10.38;;;7.13;;
1949;SDS011;975;48.760;9.152;2022-08-19T12:37:47;11.10;;;6.65;;
1949;SDS011;975;48.760;9.152;2022-08-19T12:40:15;11.18;;;7.60;;
1949;SDS011;975;48.760;9.152;2022-08-19T12:42:44;11.70;;;7.18;;
1949;SDS011;975;48.760;9.152;2022-08-19T12:45:12;13.57;;;8.25;;
1949;SDS011;975;48.760;9.152;2022-08-19T12:47:40;11.40;;;7.60;;
1949;SDS011;975;48.760;9.152;2022-08-19T12:50:10;15.45;;;7.80;;
1949;SDS011;975;48.760;9.152;2022-08-19T12:52:37;11.52;;;7.85;;
1949;SDS011;975;48.760;9.152;2022-08-19T12:55:06;10.85;;;7.07;;
1949;SDS011;975;48.760;9.152;2022-08-19T12:57:34;12.82;;;8.25;;
1949;SDS011;975;48.760;9.152;2022-08-19T13:00:03;13.90;;;8.32;;
1949;SDS011;975;48.760;9.152;2022-08-19T13:02:34;13.63;;;7.50;;
1949;SDS011;975;48.760;9.152;2022-08-19T13:05:02;13.38;;;7.85;;
1949;SDS011;975;48.760;9.152;2022-08-19T13:07:32;9.60;;;7.53;;
1949;SDS011;975;48.760;9.152;2022-08-19T13:10:00;9.82;;;7.25;;
1949;SDS011;975;48.760;9.152;2022-08-19T13:12:27;11.38;;;8.27;;
1949;SDS011;975;48.760;9.152;2022-08-19T13:14:55;12.32;;;8.02;;
1949;SDS011;975;48.760;9.152;2022-08-19T13:17:22;12.45;;;8.68;;
1949;SDS011;975;48.760;9.152;2022-08-19T13:19:50;14.23;;;9.32;;
1949;SDS011;975;48.760;9.152;2022-08-19T13:22:18;18.52;;;10.25;;
1949;SDS011;975;48.760;9.152;2022-08-19T13:24:46;15.35;;;11.48;;
1949;SDS011;975;48.760;9.152;2022-08-19T13:27:14;18.70;;;13.00;;
1949;SDS011;975;48.760;9.152;2022-08-19T13:29:42;24.27;;;13.52;;
1949;SDS011;975;48.760;9.152;2022-08-19T13:32:41;22.75;;;13.55;;
1949;SDS011;975;48.760;9.152;2022-08-19T13:35:26;26.05;;;15.27;;
1949;SDS011;975;48.760;9.152;2022-08-19T13:37:54;24.25;;;14.68;;
1949;SDS011;975;48.760;9.152;2022-08-19T13:40:23;23.17;;;14.32;;
1949;SDS011;975;48.760;9.152;2022-08-19T13:42:52;23.75;;;13.63;;
1949;SDS011;975;48.760;9.152;2022-08-19T13:45:20;25.02;;;15.18;;
1949;SDS011;975;48.760;9.152;2022-08-19T13:47:49;24.00;;;15.90;;
1949;SDS011;975;48.760;9.152;2022-08-19T13:50:18;24.25;;;14.98;;
1949;SDS011;975;48.760;9.152;2022-08-19T13:52:46;21.77;;;14.63;;
1949;SDS011;975;48.760;9.152;2022-08-19T13:55:14;21.85;;;14.23;;
1949;SDS011;975;48.760;9.152;2022-08-19T13:57:43;23.85;;;14.23;;
1949;SDS011;975;48.760;9.152;2022-08-19T14:00:12;23.83;;;14.32;;
1949;SDS011;975;48.760;9.152;2022-08-19T14:02:40;25.58;;;16.23;;
1949;SDS011;975;48.760;9.152;2022-08-19T14:05:10;27.98;;;17.73;;
1949;SDS011;975;48.760;9.152;2022-08-19T14:07:37;32.67;;;19.42;;
1949;SDS011;975;48.760;9.152;2022-08-19T14:10:06;31.73;;;19.50;;
1949;SDS011;975;48.760;9.152;2022-08-19T14:12:35;26.98;;;17.27;;
1949;SDS011;975;48.760;9.152;2022-08-19T14:15:05;27.10;;;17.63;;
1949;SDS011;975;48.760;9.152;2022-08-19T14:17:32;29.08;;;17.35;;
1949;SDS011;975;48.760;9.152;2022-08-19T14:20:01;27.58;;;17.45;;
1949;SDS011;975;48.760;9.152;2022-08-19T14:22:33;27.08;;;17.70;;
1949;SDS011;975;48.760;9.152;2022-08-19T14:25:00;30.27;;;18.65;;
1949;SDS011;975;48.760;9.152;2022-08-19T14:27:28;29.75;;;18.17;;
1949;SDS011;975;48.760;9.152;2022-08-19T14:29:55;25.65;;;17.13;;
1949;SDS011;975;48.760;9.152;2022-08-19T14:32:24;26.15;;;15.73;;
1949;SDS011;975;48.760;9.152;2022-08-19T14:34:52;25.27;;;16.63;;
1949;SDS011;975;48.760;9.152;2022-08-19T14:37:20;26.17;;;16.05;;
1949;SDS011;975;48.760;9.152;2022-08-19T14:39:48;25.20;;;16.83;;
1949;SDS011;975;48.760;9.152;2022-08-19T14:42:15;26.75;;;16.98;;
1949;SDS011;975;48.760;9.152;2022-08-19T14:44:43;28.17;;;15.93;;
1949;SDS011;975;48.760;9.152;2022-08-19T14:47:10;22.67;;;15.77;;
1949;SDS011;975;48.760;9.152;2022-08-19T14:49:39;22.73;;;14.68;;
1949;SDS011;975;48.760;9.152;2022-08-19T14:52:06;20.88;;;13.80;;
1949;SDS011;975;48.760;9.152;2022-08-19T14:54:34;20.60;;;13.43;;
1949;SDS011;975;48.760;9.152;2022-08-19T14:57:02;21.90;;;12.88;;
1949;SDS011;975;48.760;9.152;2022-08-19T14:59:29;21.85;;;13.82;;
1949;SDS011;975;48.760;9.152;2022-08-19T15:01:57;17.75;;;12.40;;
1949;SDS011;975;48.760;9.152;2022-08-19T15:04:25;19.30;;;12.95;;
1949;SDS011;975;48.760;9.152;2022-08-19T15:06:53;18.70;;;12.05;;
1949;SDS011;975;48.760;9.152;2022-08-19T15:09:21;18.38;;;12.30;;
1949;SDS011;975;48.760;9.152;2022-08-19T15:11:48;20.15;;;13.00;;
1949;SDS011;975;48.760;9.152;2022-08-19T15:14:16;19.42;;;12.00;;
1949;SDS011;975;48.760;9.152;2022-08-19T15:16:45;17.38;;;12.32;;
1949;SDS011;975;48.760;9.152;2022-08-19T15:19:13;19.10;;;12.23;;
1949;SDS011;975;48.760;9.152;2022-08-19T15:21:40;18.20;;;12.00;;